createdAt,value
2018-09-12T00:00:10.707Z,19.7
2018-09-12T00:01:13.957Z,19.6
2018-09-12T00:02:16.902Z,19.7
2018-09-12T00:03:20.483Z,19.7
2018-09-12T00:04:24.119Z,19.6
2018-09-12T00:05:29.880Z,19.6
2018-09-12T00:06:33.211Z,19.7
2018-09-12T00:07:36.408Z,19.6
2018-09-12T00:08:40.440Z,19.7
2018-09-12T00:09:45.250Z,19.7
2018-09-12T00:10:48.453Z,19.7
2018-09-12T00:11:50.921Z,19.7
2018-09-12T00:12:54.522Z,19.7
2018-09-12T00:13:57.962Z,19.7
2018-09-12T00:15:02.479Z,19.7
2018-09-12T00:16:06.781Z,19.7
2018-09-12T00:17:09.411Z,19.7
2018-09-12T00:18:13.571Z,19.7
2018-09-12T00:19:16.958Z,19.7
2018-09-12T00:20:19.392Z,19.7
2018-09-12T00:21:24.308Z,19.8
2018-09-12T00:22:26.883Z,19.7
2018-09-12T00:23:31.713Z,19.7
2018-09-12T00:24:34.808Z,19.7
2018-09-12T00:25:39.703Z,19.7
2018-09-12T00:26:47.518Z,19.7
2018-09-12T00:27:53.086Z,19.7
2018-09-12T00:28:57.948Z,19.7
2018-09-12T00:30:01.334Z,19.8
2018-09-12T00:31:04.984Z,19.8
2018-09-12T00:32:09.091Z,19.8
2018-09-12T00:33:14.441Z,19.8
2018-09-12T00:34:17.700Z,19.8
2018-09-12T00:35:21.445Z,19.8
2018-09-12T00:36:23.892Z,19.8
2018-09-12T00:37:26.468Z,19.8
2018-09-12T00:38:29.411Z,19.8
2018-09-12T00:39:32.719Z,19.8
2018-09-12T00:40:39.099Z,19.8
2018-09-12T00:41:42.609Z,19.8
2018-09-12T00:42:46.226Z,19.8
2018-09-12T00:43:49.944Z,19.8
2018-09-12T00:44:54.876Z,19.8
2018-09-12T00:46:00.674Z,19.8
2018-09-12T00:47:03.579Z,19.8
2018-09-12T00:48:06.224Z,19.8
2018-09-12T00:49:08.591Z,19.8
2018-09-12T00:50:11.436Z,19.7
2018-09-12T00:51:16.714Z,19.7
2018-09-12T00:52:20.553Z,19.7
2018-09-12T00:53:23.287Z,19.8
2018-09-12T00:54:25.392Z,19.8
2018-09-12T00:55:27.504Z,19.8
2018-09-12T00:56:29.598Z,19.8
2018-09-12T00:57:31.721Z,19.8
2018-09-12T00:58:34.113Z,19.8
2018-09-12T00:59:36.212Z,19.8
2018-09-12T01:00:38.330Z,19.8
2018-09-12T01:01:40.425Z,19.8
2018-09-12T01:02:42.526Z,19.8
2018-09-12T01:03:44.646Z,19.7
2018-09-12T01:04:46.755Z,19.7
2018-09-12T01:05:48.850Z,19.7
2018-09-12T01:06:51.263Z,19.7
2018-09-12T01:07:53.376Z,19.7
2018-09-12T01:08:55.479Z,19.7
2018-09-12T01:09:57.863Z,19.7
2018-09-12T01:10:59.967Z,19.7
2018-09-12T01:12:02.074Z,19.7
2018-09-12T01:13:04.168Z,19.7
2018-09-12T01:14:06.569Z,19.7
2018-09-12T01:15:08.674Z,19.7
2018-09-12T01:16:10.773Z,19.7
2018-09-12T01:17:12.888Z,19.7
2018-09-12T01:18:14.996Z,19.7
2018-09-12T01:19:17.106Z,19.7
2018-09-12T01:20:19.204Z,19.7
2018-09-12T01:21:21.323Z,19.7
2018-09-12T01:22:23.419Z,19.7
2018-09-12T01:23:25.522Z,19.7
2018-09-12T01:24:27.927Z,19.7
2018-09-12T01:25:30.304Z,19.7
2018-09-12T01:26:32.426Z,19.7
2018-09-12T01:27:34.532Z,19.7
2018-09-12T01:28:36.644Z,19.7
2018-09-12T01:29:38.732Z,19.7
2018-09-12T01:30:40.849Z,19.7
2018-09-12T01:31:42.952Z,19.7
2018-09-12T01:32:45.061Z,19.7
2018-09-12T01:33:47.178Z,19.7
2018-09-12T01:34:49.662Z,19.7
2018-09-12T01:35:52.057Z,19.7
2018-09-12T01:36:54.467Z,19.7
2018-09-12T01:37:56.575Z,19.7
2018-09-12T01:38:58.972Z,19.7
2018-09-12T01:40:01.079Z,19.7
2018-09-12T01:41:03.182Z,19.7
2018-09-12T01:42:05.582Z,19.7
2018-09-12T01:43:07.695Z,19.6
2018-09-12T01:44:09.804Z,19.6
2018-09-12T01:45:12.583Z,19.6
2018-09-12T01:46:14.961Z,19.6
2018-09-12T01:47:17.073Z,19.6
2018-09-12T01:48:19.187Z,19.6
2018-09-12T01:49:21.569Z,19.6
2018-09-12T01:50:23.691Z,19.6
2018-09-12T01:51:25.793Z,19.6
2018-09-12T01:52:28.212Z,19.7
2018-09-12T01:53:30.622Z,19.6
2018-09-12T01:54:32.743Z,19.6
2018-09-12T01:55:34.840Z,19.6
2018-09-12T01:56:36.951Z,19.6
2018-09-12T01:57:39.069Z,19.7
2018-09-12T01:58:41.162Z,19.6
2018-09-12T01:59:43.275Z,19.6
2018-09-12T02:00:45.375Z,19.6
2018-09-12T02:01:47.488Z,19.6
2018-09-12T02:02:49.580Z,19.6
2018-09-12T02:03:52.379Z,19.6
2018-09-12T02:04:54.480Z,19.6
2018-09-12T02:05:56.578Z,19.6
2018-09-12T02:06:58.700Z,19.6
2018-09-12T02:08:00.798Z,19.6
2018-09-12T02:09:03.581Z,19.6
2018-09-12T02:10:05.745Z,19.6
2018-09-12T02:11:08.143Z,19.6
2018-09-12T02:12:10.236Z,19.6
2018-09-12T02:13:12.345Z,19.6
2018-09-12T02:14:14.441Z,19.6
2018-09-12T02:15:16.546Z,19.6
2018-09-12T02:16:18.662Z,19.5
2018-09-12T02:17:21.140Z,19.4
2018-09-12T02:18:23.529Z,19.4
2018-09-12T02:19:25.654Z,19.2
2018-09-12T02:20:28.071Z,19
2018-09-12T02:21:30.459Z,19.1
2018-09-12T02:22:32.563Z,19
2018-09-12T02:23:34.680Z,18.9
2018-09-12T02:24:36.782Z,18.8
2018-09-12T02:25:38.891Z,18.8
2018-09-12T02:26:40.986Z,18.6
2018-09-12T02:27:43.101Z,18.6
2018-09-12T02:28:45.199Z,18.5
2018-09-12T02:29:47.595Z,18.3
2018-09-12T02:30:49.713Z,18.2
2018-09-12T02:31:51.805Z,18.2
2018-09-12T02:32:53.925Z,18.2
2018-09-12T02:33:56.316Z,18.2
2018-09-12T02:34:59.710Z,18.2
2018-09-12T02:36:02.085Z,18.1
2018-09-12T02:37:04.492Z,18.1
2018-09-12T02:38:06.590Z,18.1
2018-09-12T02:39:09.131Z,18.2
2018-09-12T02:40:11.499Z,18.2
2018-09-12T02:41:13.899Z,18.2
2018-09-12T02:42:16.303Z,18.1
2018-09-12T02:43:18.421Z,18
2018-09-12T02:44:20.817Z,18
2018-09-12T02:45:23.201Z,17.9
2018-09-12T02:46:25.619Z,18
2018-09-12T02:47:28.108Z,17.8
2018-09-12T02:48:30.501Z,17.9
2018-09-12T02:49:32.610Z,17.9
2018-09-12T02:50:34.715Z,17.9
2018-09-12T02:51:37.200Z,17.8
2018-09-12T02:52:39.319Z,17.8
2018-09-12T02:53:41.412Z,17.8
2018-09-12T02:54:43.901Z,17.8
2018-09-12T02:55:46.008Z,17.7
2018-09-12T02:56:48.094Z,17.7
2018-09-12T02:57:50.200Z,17.7
2018-09-12T02:58:52.910Z,17.7
2018-09-12T02:59:55.310Z,17.6
2018-09-12T03:00:57.395Z,17.6
2018-09-12T03:01:59.504Z,17.6
2018-09-12T03:03:01.608Z,17.6
2018-09-12T03:04:03.993Z,17.6
2018-09-12T03:05:06.109Z,17.6
2018-09-12T03:06:08.206Z,17.6
2018-09-12T03:07:10.601Z,17.6
2018-09-12T03:08:12.990Z,17.6
2018-09-12T03:09:15.491Z,17.5
2018-09-12T03:10:17.594Z,17.6
2018-09-12T03:11:19.701Z,17.6
2018-09-12T03:12:22.486Z,17.6
2018-09-12T03:13:24.570Z,17.6
2018-09-12T03:14:27.261Z,17.6
2018-09-12T03:15:29.373Z,17.6
2018-09-12T03:16:32.042Z,17.6
2018-09-12T03:17:34.845Z,17.5
2018-09-12T03:18:36.963Z,17.5
2018-09-12T03:19:39.360Z,17.5
2018-09-12T03:20:42.029Z,17.5
2018-09-12T03:21:44.529Z,17.5
2018-09-12T03:22:46.620Z,17.4
2018-09-12T03:23:48.727Z,17.4
2018-09-12T03:24:51.144Z,17.4
2018-09-12T03:25:53.245Z,17.4
2018-09-12T03:26:55.352Z,17.4
2018-09-12T03:27:57.460Z,17.4
2018-09-12T03:28:59.554Z,17.4
2018-09-12T03:30:01.959Z,17.4
2018-09-12T03:31:04.054Z,17.4
2018-09-12T03:32:06.776Z,17.4
2018-09-12T03:33:09.456Z,17.4
2018-09-12T03:34:11.864Z,17.4
2018-09-12T03:35:13.958Z,17.3
2018-09-12T03:36:16.060Z,17.3
2018-09-12T03:37:18.170Z,17.2
2018-09-12T03:38:20.273Z,17.2
2018-09-12T03:39:22.361Z,17.2
2018-09-12T03:40:24.466Z,17.1
2018-09-12T03:41:27.268Z,17.2
2018-09-12T03:42:29.389Z,17.2
2018-09-12T03:43:31.769Z,17.2
2018-09-12T03:44:34.166Z,17.2
2018-09-12T03:45:36.269Z,17.2
2018-09-12T03:46:38.678Z,17.1
2018-09-12T03:47:41.477Z,17.1
2018-09-12T03:48:43.575Z,17
2018-09-12T03:49:46.063Z,17
2018-09-12T03:50:48.167Z,17
2018-09-12T03:51:50.281Z,17
2018-09-12T03:52:52.381Z,16.9
2018-09-12T03:53:54.800Z,16.9
2018-09-12T03:54:56.916Z,16.9
2018-09-12T03:55:58.997Z,16.9
2018-09-12T03:57:01.103Z,16.9
2018-09-12T03:58:03.213Z,16.8
2018-09-12T03:59:05.299Z,16.8
2018-09-12T04:00:07.721Z,16.8
2018-09-12T04:01:09.821Z,16.8
2018-09-12T04:02:12.229Z,16.8
2018-09-12T04:03:14.350Z,16.9
2018-09-12T04:04:16.453Z,16.8
2018-09-12T04:05:18.556Z,16.8
2018-09-12T04:06:20.652Z,16.9
2018-09-12T04:07:22.768Z,16.8
2018-09-12T04:08:24.864Z,16.9
2018-09-12T04:09:27.572Z,16.8
2018-09-12T04:10:29.690Z,16.8
2018-09-12T04:11:31.783Z,16.7
2018-09-12T04:12:33.902Z,16.7
2018-09-12T04:13:36.005Z,16.7
2018-09-12T04:14:38.112Z,16.7
2018-09-12T04:15:40.204Z,16.6
2018-09-12T04:16:42.684Z,16.6
2018-09-12T04:17:45.161Z,16.6
2018-09-12T04:18:47.587Z,16.6
2018-09-12T04:19:49.683Z,16.6
2018-09-12T04:20:52.080Z,16.5
2018-09-12T04:21:54.182Z,16.5
2018-09-12T04:22:56.276Z,16.5
2018-09-12T04:23:58.674Z,16.5
2018-09-12T04:25:01.083Z,16.6
2018-09-12T04:26:03.177Z,16.6
2018-09-12T04:27:05.289Z,16.5
2018-09-12T04:28:07.391Z,16.5
2018-09-12T04:29:09.483Z,16.5
2018-09-12T04:30:11.877Z,16.5
2018-09-12T04:31:14.271Z,16.5
2018-09-12T04:32:16.369Z,16.5
2018-09-12T04:33:18.473Z,16.5
2018-09-12T04:34:20.582Z,16.5
2018-09-12T04:35:22.690Z,16.5
2018-09-12T04:36:25.407Z,16.5
2018-09-12T04:37:27.503Z,16.5
2018-09-12T04:38:29.606Z,16.5
2018-09-12T04:39:31.703Z,16.5
2018-09-12T04:40:33.824Z,16.5
2018-09-12T04:41:35.923Z,16.6
2018-09-12T04:42:38.053Z,16.5
2018-09-12T04:43:40.139Z,16.5
2018-09-12T04:44:42.517Z,16.4
2018-09-12T04:45:44.783Z,16.5
2018-09-12T04:46:46.897Z,16.4
2018-09-12T04:47:49.004Z,16.4
2018-09-12T04:48:51.092Z,16.4
2018-09-12T04:49:53.210Z,16.4
2018-09-12T04:50:55.885Z,16.4
2018-09-12T04:51:57.981Z,16.4
2018-09-12T04:53:00.413Z,16.4
2018-09-12T04:54:02.857Z,16.3
2018-09-12T04:55:04.963Z,16.3
2018-09-12T04:56:07.062Z,16.2
2018-09-12T04:57:09.164Z,16.2
2018-09-12T04:58:11.565Z,16.3
2018-09-12T04:59:13.663Z,16.2
2018-09-12T05:00:16.088Z,16.3
2018-09-12T05:01:18.788Z,16.3
2018-09-12T05:02:21.262Z,16.2
2018-09-12T05:03:23.371Z,16.2
2018-09-12T05:04:26.226Z,16.2
2018-09-12T05:05:28.600Z,16.2
2018-09-12T05:06:31.111Z,16.1
2018-09-12T05:07:33.507Z,16.1
2018-09-12T05:08:35.605Z,16.1
2018-09-12T05:09:38.029Z,16.1
2018-09-12T05:10:40.414Z,16.1
2018-09-12T05:11:42.526Z,16.1
2018-09-12T05:12:45.004Z,16.1
2018-09-12T05:13:47.124Z,16.2
2018-09-12T05:14:49.220Z,16.2
2018-09-12T05:15:51.343Z,16.2
2018-09-12T05:16:53.437Z,16.1
2018-09-12T05:17:55.809Z,16.1
2018-09-12T05:18:57.921Z,16.1
2018-09-12T05:20:00.027Z,16.1
2018-09-12T05:21:02.546Z,15.9
2018-09-12T05:22:04.635Z,15.9
2018-09-12T05:23:06.749Z,16
2018-09-12T05:24:08.847Z,15.9
2018-09-12T05:25:11.241Z,15.9
2018-09-12T05:26:13.650Z,15.9
2018-09-12T05:27:16.425Z,15.9
2018-09-12T05:28:18.524Z,16
2018-09-12T05:29:20.638Z,15.9
2018-09-12T05:30:22.740Z,15.8
2018-09-12T05:31:25.219Z,15.9
2018-09-12T05:32:27.320Z,15.8
2018-09-12T05:33:29.416Z,15.8
2018-09-12T05:34:31.520Z,15.8
2018-09-12T05:35:34.021Z,15.7
2018-09-12T05:36:36.126Z,15.7
2018-09-12T05:37:38.217Z,15.8
2018-09-12T05:38:40.335Z,15.7
2018-09-12T05:39:42.744Z,15.7
2018-09-12T05:40:44.841Z,15.6
2018-09-12T05:41:46.952Z,15.5
2018-09-12T05:42:49.046Z,15.6
2018-09-12T05:43:51.154Z,15.6
2018-09-12T05:44:53.252Z,15.5
2018-09-12T05:45:55.362Z,15.4
2018-09-12T05:46:57.755Z,15.4
2018-09-12T05:48:00.272Z,15.4
2018-09-12T05:49:02.760Z,15.4
2018-09-12T05:50:04.908Z,15.4
2018-09-12T05:51:06.973Z,15.4
2018-09-12T05:52:09.063Z,15.4
2018-09-12T05:53:11.470Z,15.3
2018-09-12T05:54:13.565Z,15.3
2018-09-12T05:55:15.997Z,15.3
2018-09-12T05:56:18.090Z,15.3
2018-09-12T05:57:20.197Z,15.3
2018-09-12T05:58:22.300Z,15.1
2018-09-12T05:59:24.784Z,15.1
2018-09-12T06:00:26.898Z,15.2
2018-09-12T06:01:28.998Z,15.2
2018-09-12T06:02:31.093Z,15.2
2018-09-12T06:03:33.196Z,15.2
2018-09-12T06:04:35.312Z,15.3
2018-09-12T06:05:37.701Z,15.3
2018-09-12T06:06:39.815Z,15.3
2018-09-12T06:07:42.199Z,15.3
2018-09-12T06:08:44.288Z,15.3
2018-09-12T06:09:46.397Z,15.3
2018-09-12T06:10:48.491Z,15.3
2018-09-12T06:11:50.610Z,15.4
2018-09-12T06:12:52.705Z,15.4
2018-09-12T06:13:54.807Z,15.3
2018-09-12T06:14:56.914Z,15.3
2018-09-12T06:15:59.003Z,15.3
2018-09-12T06:17:01.514Z,15.2
2018-09-12T06:18:03.616Z,15.2
2018-09-12T06:19:05.726Z,15.1
2018-09-12T06:20:07.812Z,15.2
2018-09-12T06:21:09.928Z,15.2
2018-09-12T06:22:12.035Z,15.2
2018-09-12T06:23:14.127Z,15.2
2018-09-12T06:24:16.534Z,15.3
2018-09-12T06:25:18.928Z,15.2
2018-09-12T06:26:21.031Z,15.3
2018-09-12T06:27:23.134Z,15.3
2018-09-12T06:28:25.538Z,15.3
2018-09-12T06:29:27.630Z,15.3
2018-09-12T06:30:29.740Z,15.2
2018-09-12T06:31:31.852Z,15.2
2018-09-12T06:32:33.945Z,15.2
2018-09-12T06:33:36.050Z,15.3
2018-09-12T06:34:38.156Z,15.3
2018-09-12T06:35:40.251Z,15.3
2018-09-12T06:36:42.358Z,15.3
2018-09-12T06:37:44.849Z,15.3
2018-09-12T06:38:47.318Z,15.3
2018-09-12T06:39:49.354Z,15.3
2018-09-12T06:40:51.771Z,15.3
2018-09-12T06:41:54.161Z,15.3
2018-09-12T06:42:56.268Z,15.2
2018-09-12T06:43:58.380Z,15.3
2018-09-12T06:45:00.471Z,15.3
2018-09-12T06:46:02.871Z,15.2
2018-09-12T06:47:05.271Z,15.2
2018-09-12T06:48:07.371Z,15.2
2018-09-12T06:49:09.459Z,15.2
2018-09-12T06:50:11.570Z,15.3
2018-09-12T06:51:13.676Z,15.3
2018-09-12T06:52:16.184Z,15.3
2018-09-12T06:53:18.279Z,15.3
2018-09-12T06:54:20.392Z,15.3
2018-09-12T06:55:22.526Z,15.3
2018-09-12T06:56:24.596Z,15.3
2018-09-12T06:57:27.035Z,15.2
2018-09-12T06:58:29.139Z,15.3
2018-09-12T06:59:31.237Z,15.2
2018-09-12T07:00:33.642Z,15.1
2018-09-12T07:01:36.066Z,15.1
2018-09-12T07:02:38.149Z,15.2
2018-09-12T07:03:40.846Z,15.2
2018-09-12T07:04:42.953Z,15.1
2018-09-12T07:05:45.097Z,15.1
2018-09-12T07:06:47.152Z,15.2
2018-09-12T07:07:49.259Z,15.2
2018-09-12T07:08:51.642Z,15.3
2018-09-12T07:09:53.747Z,15.2
2018-09-12T07:10:55.863Z,15.2
2018-09-12T07:11:57.961Z,15.2
2018-09-12T07:13:00.081Z,15.2
2018-09-12T07:14:02.205Z,15.2
2018-09-12T07:15:04.660Z,15.3
2018-09-12T07:16:06.763Z,15.1
2018-09-12T07:17:09.175Z,15.2
2018-09-12T07:18:11.841Z,15.3
2018-09-12T07:19:13.954Z,15.2
2018-09-12T07:20:16.062Z,15.3
2018-09-12T07:21:18.157Z,15.3
2018-09-12T07:22:20.284Z,15.3
2018-09-12T07:23:22.379Z,15.3
2018-09-12T07:24:24.563Z,15.3
2018-09-12T07:25:27.255Z,15.3
2018-09-12T07:26:29.366Z,15.2
2018-09-12T07:27:32.099Z,15.2
2018-09-12T07:28:34.160Z,15.2
2018-09-12T07:29:36.269Z,15.2
2018-09-12T07:30:38.485Z,15.3
2018-09-12T07:31:40.506Z,15.3
2018-09-12T07:32:42.996Z,15.3
2018-09-12T07:33:45.095Z,15.3
2018-09-12T07:34:47.527Z,15.2
2018-09-12T07:35:49.626Z,15.3
2018-09-12T07:36:52.031Z,15.3
2018-09-12T07:37:54.151Z,15.3
2018-09-12T07:38:56.845Z,15.3
2018-09-12T07:39:58.962Z,15.4
2018-09-12T07:41:01.457Z,15.3
2018-09-12T07:42:03.851Z,15.2
2018-09-12T07:43:05.959Z,15.3
2018-09-12T07:44:08.363Z,15.3
2018-09-12T07:45:10.465Z,15.4
2018-09-12T07:46:12.869Z,15.3
2018-09-12T07:47:14.971Z,15.2
2018-09-12T07:48:17.061Z,15.3
2018-09-12T07:49:19.169Z,15.3
2018-09-12T07:50:21.285Z,15.3
2018-09-12T07:51:23.668Z,15.4
2018-09-12T07:52:26.080Z,15.4
2018-09-12T07:53:28.186Z,15.5
2018-09-12T07:54:30.282Z,15.4
2018-09-12T07:55:32.400Z,15.4
2018-09-12T07:56:35.194Z,15.5
2018-09-12T07:57:37.899Z,15.5
2018-09-12T07:58:39.992Z,15.6
2018-09-12T07:59:42.404Z,15.5
2018-09-12T08:00:44.506Z,15.5
2018-09-12T08:01:46.604Z,15.5
2018-09-12T08:02:48.710Z,15.5
2018-09-12T08:03:50.811Z,15.5
2018-09-12T08:04:52.942Z,15.5
2018-09-12T08:05:55.487Z,15.6
2018-09-12T08:06:57.978Z,15.7
2018-09-12T08:08:00.065Z,15.7
2018-09-12T08:09:02.180Z,15.7
2018-09-12T08:10:04.280Z,15.7
2018-09-12T08:11:06.382Z,15.8
2018-09-12T08:12:08.518Z,15.8
2018-09-12T08:13:10.999Z,15.8
2018-09-12T08:14:13.104Z,15.8
2018-09-12T08:15:15.208Z,15.9
2018-09-12T08:16:17.712Z,16
2018-09-12T08:17:19.803Z,16
2018-09-12T08:18:21.904Z,16
2018-09-12T08:19:24.006Z,16
2018-09-12T08:20:26.431Z,15.9
2018-09-12T08:21:28.542Z,16
2018-09-12T08:22:30.645Z,16.1
2018-09-12T08:23:32.743Z,16
2018-09-12T08:24:35.470Z,16.1
2018-09-12T08:25:37.574Z,16.1
2018-09-12T08:26:39.995Z,16
2018-09-12T08:27:42.102Z,16.1
2018-09-12T08:28:44.200Z,16
2018-09-12T08:29:46.307Z,16
2018-09-12T08:30:48.418Z,15.8
2018-09-12T08:31:50.536Z,15.9
2018-09-12T08:32:52.624Z,15.9
2018-09-12T08:33:54.739Z,15.8
2018-09-12T08:34:56.844Z,15.8
2018-09-12T08:35:58.947Z,15.8
2018-09-12T08:37:01.065Z,15.9
2018-09-12T08:38:03.156Z,16
2018-09-12T08:39:05.262Z,16
2018-09-12T08:40:07.363Z,16
2018-09-12T08:41:09.485Z,15.9
2018-09-12T08:42:12.050Z,15.8
2018-09-12T08:43:14.127Z,15.8
2018-09-12T08:44:16.225Z,15.8
2018-09-12T08:45:18.641Z,15.7
2018-09-12T08:46:20.735Z,15.8
2018-09-12T08:47:23.125Z,15.7
2018-09-12T08:48:25.234Z,15.7
2018-09-12T08:49:27.339Z,15.6
2018-09-12T08:50:29.827Z,15.7
2018-09-12T08:51:31.928Z,15.7
2018-09-12T08:52:34.029Z,15.5
2018-09-12T08:53:36.527Z,15.4
2018-09-12T08:54:38.643Z,15.5
2018-09-12T08:55:41.033Z,15.4
2018-09-12T08:56:43.194Z,15.4
2018-09-12T08:57:45.253Z,15.5
2018-09-12T08:58:47.348Z,15.5
2018-09-12T08:59:49.445Z,15.5
2018-09-12T09:00:51.562Z,15.5
2018-09-12T09:01:53.645Z,15.5
2018-09-12T09:02:56.052Z,15.5
2018-09-12T09:03:58.200Z,15.5
2018-09-12T09:05:00.614Z,15.6
2018-09-12T09:06:03.095Z,15.5
2018-09-12T09:07:05.497Z,15.5
2018-09-12T09:08:07.597Z,15.5
2018-09-12T09:09:09.691Z,15.5
2018-09-12T09:10:11.804Z,15.5
2018-09-12T09:11:13.896Z,15.6
2018-09-12T09:12:15.997Z,15.5
2018-09-12T09:13:18.104Z,15.5
2018-09-12T09:14:20.212Z,15.6
2018-09-12T09:15:22.303Z,15.6
2018-09-12T09:16:24.424Z,15.6
2018-09-12T09:17:26.651Z,15.6
2018-09-12T09:18:28.907Z,15.6
2018-09-12T09:19:31.309Z,15.6
2018-09-12T09:20:33.406Z,15.6
2018-09-12T09:21:35.500Z,15.7
2018-09-12T09:22:37.609Z,15.6
2018-09-12T09:23:39.782Z,15.6
2018-09-12T09:24:41.817Z,15.6
2018-09-12T09:25:44.217Z,15.7
2018-09-12T09:26:46.321Z,15.8
2018-09-12T09:27:48.412Z,15.7
2018-09-12T09:28:50.514Z,15.6
2018-09-12T09:29:52.923Z,15.7
2018-09-12T09:30:55.007Z,15.8
2018-09-12T09:31:57.118Z,15.8
2018-09-12T09:32:59.226Z,15.8
2018-09-12T09:34:01.318Z,15.8
2018-09-12T09:35:03.911Z,15.8
2018-09-12T09:36:06.612Z,15.8
2018-09-12T09:37:08.710Z,15.8
2018-09-12T09:38:10.803Z,15.8
2018-09-12T09:39:13.502Z,15.6
2018-09-12T09:40:15.901Z,15.8
2018-09-12T09:41:18.293Z,15.8
2018-09-12T09:42:20.404Z,15.9
2018-09-12T09:43:22.500Z,15.6
2018-09-12T09:44:24.906Z,15.7
2018-09-12T09:45:27.712Z,15.7
2018-09-12T09:46:29.811Z,15.8
2018-09-12T09:47:31.901Z,15.9
2018-09-12T09:48:34.415Z,15.8
2018-09-12T09:49:36.801Z,15.9
2018-09-12T09:50:38.899Z,16
2018-09-12T09:51:41.014Z,16
2018-09-12T09:52:43.102Z,16
2018-09-12T09:53:45.210Z,16
2018-09-12T09:54:47.376Z,16
2018-09-12T09:55:49.427Z,16.1
2018-09-12T09:56:51.515Z,16.1
2018-09-12T09:57:53.620Z,16.2
2018-09-12T09:58:56.080Z,16.2
2018-09-12T09:59:58.141Z,16.2
2018-09-12T10:01:00.231Z,16
2018-09-12T10:02:02.629Z,16
2018-09-12T10:03:04.749Z,16.1
2018-09-12T10:04:06.866Z,16.2
2018-09-12T10:05:08.972Z,16
2018-09-12T10:06:11.081Z,16.2
2018-09-12T10:07:13.183Z,16.3
2018-09-12T10:08:15.299Z,16.3
2018-09-12T10:09:17.409Z,16.2
2018-09-12T10:10:19.831Z,16.2
2018-09-12T10:11:21.928Z,16.3
2018-09-12T10:12:24.060Z,16.3
2018-09-12T10:13:26.162Z,16.4
2018-09-12T10:14:28.559Z,16.3
2018-09-12T10:15:30.689Z,16.4
2018-09-12T10:16:33.110Z,16.4
2018-09-12T10:17:35.521Z,16.3
2018-09-12T10:18:37.626Z,16.3
2018-09-12T10:19:40.031Z,16.3
2018-09-12T10:20:42.126Z,16.4
2018-09-12T10:21:44.244Z,16.5
2018-09-12T10:22:46.348Z,16.6
2018-09-12T10:23:48.739Z,16.5
2018-09-12T10:24:50.868Z,16.5
2018-09-12T10:25:52.963Z,16.4
2018-09-12T10:26:55.074Z,16.5
2018-09-12T10:27:57.192Z,16.5
2018-09-12T10:28:59.307Z,16.5
2018-09-12T10:30:01.688Z,16.5
2018-09-12T10:31:03.796Z,16.6
2018-09-12T10:32:06.474Z,16.3
2018-09-12T10:33:08.612Z,16.3
2018-09-12T10:34:10.704Z,16.5
2018-09-12T10:35:12.808Z,16.4
2018-09-12T10:36:15.194Z,16.5
2018-09-12T10:37:17.346Z,16.6
2018-09-12T10:38:19.455Z,16.6
2018-09-12T10:39:22.244Z,16.5
2018-09-12T10:40:24.662Z,16.6
2018-09-12T10:41:26.768Z,16.6
2018-09-12T10:42:28.886Z,16.6
2018-09-12T10:43:30.991Z,16.5
2018-09-12T10:44:33.106Z,16.6
2018-09-12T10:45:35.201Z,16.6
2018-09-12T10:46:37.323Z,16.6
2018-09-12T10:47:39.435Z,16.6
2018-09-12T10:48:41.537Z,16.6
2018-09-12T10:49:44.051Z,16.6
2018-09-12T10:50:46.143Z,16.5
2018-09-12T10:51:48.246Z,16.6
2018-09-12T10:52:51.046Z,16.7
2018-09-12T10:53:53.462Z,16.7
2018-09-12T10:54:55.556Z,16.6
2018-09-12T10:55:57.663Z,16.8
2018-09-12T10:56:59.784Z,16.7
2018-09-12T10:58:01.884Z,16.8
2018-09-12T10:59:04.361Z,17
2018-09-12T11:00:06.393Z,17
2018-09-12T11:01:08.492Z,17
2018-09-12T11:02:10.609Z,17.3
2018-09-12T11:03:12.721Z,17.1
2018-09-12T11:04:14.879Z,17
2018-09-12T11:05:16.943Z,17.3
2018-09-12T11:06:19.057Z,17.4
2018-09-12T11:07:21.454Z,17.2
2018-09-12T11:08:23.573Z,17.4
2018-09-12T11:09:25.683Z,17.4
2018-09-12T11:10:27.792Z,17.6
2018-09-12T11:11:29.907Z,17.5
2018-09-12T11:12:32.026Z,17.6
2018-09-12T11:13:34.136Z,17.8
2018-09-12T11:14:36.228Z,17.7
2018-09-12T11:15:38.339Z,17.6
2018-09-12T11:16:40.447Z,17.7
2018-09-12T11:17:43.341Z,17.7
2018-09-12T11:18:45.436Z,17.7
2018-09-12T11:19:47.554Z,17.6
2018-09-12T11:20:49.670Z,17.7
2018-09-12T11:21:52.446Z,17.5
2018-09-12T11:22:54.570Z,17.6
2018-09-12T11:23:56.735Z,17.5
2018-09-12T11:24:58.777Z,17.4
2018-09-12T11:26:00.877Z,17.4
2018-09-12T11:27:03.004Z,17.4
2018-09-12T11:28:05.097Z,17.2
2018-09-12T11:29:07.210Z,17.2
2018-09-12T11:30:10.071Z,17.3
2018-09-12T11:31:12.164Z,17.4
2018-09-12T11:32:14.596Z,17.4
2018-09-12T11:33:16.716Z,17.2
2018-09-12T11:34:19.308Z,17.3
2018-09-12T11:35:21.371Z,17.3
2018-09-12T11:36:23.780Z,17.4
2018-09-12T11:37:26.459Z,17.3
2018-09-12T11:38:28.963Z,17.3
2018-09-12T11:39:31.070Z,17.3
2018-09-12T11:40:33.465Z,17.2
2018-09-12T11:41:35.571Z,17.2
2018-09-12T11:42:37.979Z,17.1
2018-09-12T11:43:40.069Z,17.2
2018-09-12T11:44:42.182Z,17.1
2018-09-12T11:45:44.290Z,17.2
2018-09-12T11:46:46.389Z,17.1
2018-09-12T11:47:48.507Z,17
2018-09-12T11:48:51.286Z,17.1
2018-09-12T11:49:53.394Z,17
2018-09-12T11:50:55.779Z,17
2018-09-12T11:51:57.893Z,17.1
2018-09-12T11:53:00.005Z,17.1
2018-09-12T11:54:02.519Z,17.1
2018-09-12T11:55:05.227Z,17
2018-09-12T11:56:07.740Z,16.9
2018-09-12T11:57:09.830Z,16.9
2018-09-12T11:58:11.937Z,17
2018-09-12T11:59:14.327Z,16.9
2018-09-12T12:00:16.445Z,16.8
2018-09-12T12:01:18.846Z,16.8
2018-09-12T12:02:21.639Z,16.8
2018-09-12T12:03:24.748Z,16.7
2018-09-12T12:04:26.838Z,16.6
2018-09-12T12:05:28.953Z,16.5
2018-09-12T12:06:31.357Z,16.4
2018-09-12T12:07:33.443Z,16.6
2018-09-12T12:08:35.844Z,16.5
2018-09-12T12:09:37.960Z,16.6
2018-09-12T12:10:40.354Z,16.5
2018-09-12T12:11:42.464Z,16.7
2018-09-12T12:12:44.864Z,16.7
2018-09-12T12:13:46.953Z,16.6
2018-09-12T12:14:49.357Z,16.7
2018-09-12T12:15:51.480Z,16.6
2018-09-12T12:16:53.578Z,16.5
2018-09-12T12:17:56.369Z,16.4
2018-09-12T12:18:58.478Z,16.5
2018-09-12T12:20:00.581Z,16.6
2018-09-12T12:21:02.704Z,16.7
2018-09-12T12:22:04.798Z,16.7
2018-09-12T12:23:07.341Z,16.9
2018-09-12T12:24:09.806Z,16.9
2018-09-12T12:25:11.928Z,16.8
2018-09-12T12:26:14.022Z,16.9
2018-09-12T12:27:16.132Z,16.9
2018-09-12T12:28:18.243Z,16.7
2018-09-12T12:29:20.352Z,16.7
2018-09-12T12:30:22.456Z,16.7
2018-09-12T12:31:24.958Z,16.7
2018-09-12T12:32:27.061Z,16.7
2018-09-12T12:33:29.179Z,16.7
2018-09-12T12:34:31.273Z,16.6
2018-09-12T12:35:33.869Z,16.5
2018-09-12T12:36:35.853Z,16.5
2018-09-12T12:37:37.944Z,16.5
2018-09-12T12:38:40.056Z,16.5
2018-09-12T12:39:42.487Z,16.4
2018-09-12T12:40:44.593Z,16.4
2018-09-12T12:41:46.701Z,16.3
2018-09-12T12:42:49.105Z,16.2
2018-09-12T12:43:51.598Z,16.2
2018-09-12T12:44:54.005Z,16.2
2018-09-12T12:45:56.109Z,16
2018-09-12T12:46:58.217Z,16
2018-09-12T12:48:01.031Z,15.9
2018-09-12T12:49:03.149Z,15.9
2018-09-12T12:50:05.248Z,15.9
2018-09-12T12:51:07.364Z,16.1
2018-09-12T12:52:09.476Z,16
2018-09-12T12:53:11.870Z,16.1
2018-09-12T12:54:13.999Z,16
2018-09-12T12:55:16.103Z,15.9
2018-09-12T12:56:18.498Z,15.8
2018-09-12T12:57:20.892Z,15.7
2018-09-12T12:58:23.008Z,15.6
2018-09-12T12:59:25.107Z,15.6
2018-09-12T13:00:27.518Z,15.8
2018-09-12T13:01:29.916Z,16
2018-09-12T13:02:32.006Z,15.9
2018-09-12T13:03:34.403Z,15.9
2018-09-12T13:04:36.507Z,15.6
2018-09-12T13:05:39.033Z,15.7
2018-09-12T13:06:41.416Z,15.7
2018-09-12T13:07:43.540Z,15.6
2018-09-12T13:08:45.689Z,15.7
2018-09-12T13:09:47.794Z,15.6
2018-09-12T13:10:49.912Z,15.8
2018-09-12T13:11:52.016Z,15.9
2018-09-12T13:13:04.317Z,15.9
2018-09-12T13:14:09.456Z,15.9
2018-09-12T13:15:12.422Z,16
2018-09-12T13:16:14.568Z,15.9
2018-09-12T13:17:16.676Z,15.9
2018-09-12T13:18:18.774Z,16
2018-09-12T13:19:20.921Z,15.9
2018-09-12T13:20:23.032Z,15.9
2018-09-12T13:21:25.196Z,15.9
2018-09-12T13:22:27.247Z,15.9
2018-09-12T13:23:29.901Z,15.9
2018-09-12T13:24:34.105Z,16
2018-09-12T13:25:38.118Z,16
2018-09-12T13:26:42.011Z,16
2018-09-12T13:27:44.779Z,16.1
2018-09-12T13:28:48.392Z,16.1
2018-09-12T13:29:50.963Z,15.9
2018-09-12T13:30:57.993Z,16
2018-09-12T13:32:01.305Z,16
2018-09-12T13:33:05.000Z,16
2018-09-12T13:34:08.650Z,16
2018-09-12T13:35:11.789Z,15.9
2018-09-12T13:36:15.068Z,15.9
2018-09-12T13:37:18.874Z,15.8
2018-09-12T13:38:21.715Z,15.8
2018-09-12T13:39:25.513Z,15.9
2018-09-12T13:40:28.973Z,15.9
2018-09-12T13:41:31.953Z,15.9
2018-09-12T13:42:35.015Z,15.9
2018-09-12T13:43:37.925Z,15.9
2018-09-12T13:44:40.713Z,16
2018-09-12T13:45:44.453Z,16
2018-09-12T13:46:47.412Z,15.9
2018-09-12T13:47:50.632Z,15.8
2018-09-12T13:48:54.480Z,15.8
2018-09-12T13:49:59.282Z,15.8
2018-09-12T13:51:02.286Z,15.8
2018-09-12T13:52:05.871Z,15.8
2018-09-12T13:53:09.402Z,15.6
2018-09-12T13:54:15.445Z,15.8